Time;durP1;ratioP1;P1;durP2;ratioP2;P2;SDS_P1;SDS_P2;PMS_P1;PMS_P2;Temp;Humidity;BMP_temperature;BMP_pressure;BME280_temperature;BME280_humidity;BME280_pressure;Samples;Min_cycle;Max_cycle;Signal;HPM_P1;HPM_P2
2023/05/31 00:00:37;;;;;;;9.10;6.10;;;;;;;12.74;100.00;97453.72;110120;1244;68261;-68
2023/05/31 00:03:22;;;;;;;10.00;7.60;;;;;;;12.69;100.00;97452.90;110106;1241;69844;-67
2023/05/31 00:05:51;;;;;;;10.80;6.80;;;;;;;12.64;100.00;97452.82;110156;1241;59640;-67
2023/05/31 00:08:19;;;;;;;8.70;6.90;;;;;;;12.60;100.00;97452.09;110130;1244;59690;-67
2023/05/31 00:10:49;;;;;;;9.80;7.00;;;;;;;12.55;100.00;97454.21;110101;1241;71443;-66
2023/05/31 00:13:20;;;;;;;10.60;7.50;;;;;;;12.50;100.00;97452.73;110112;1244;68486;-67
2023/05/31 00:15:50;;;;;;;8.30;6.10;;;;;;;12.46;100.00;97459.33;110112;1241;69668;-68
2023/05/31 00:18:21;;;;;;;12.90;8.30;;;;;;;12.39;100.00;97460.02;109773;1243;59821;-68
2023/05/31 00:20:50;;;;;;;8.70;7.30;;;;;;;12.32;100.00;97460.27;110121;1242;59745;-68
2023/05/31 00:23:21;;;;;;;10.10;7.30;;;;;;;12.27;100.00;97458.26;110144;1244;71309;-69
2023/05/31 00:25:52;;;;;;;;;;;;;;;12.24;100.00;97459.98;109960;1243;69227;-67
2023/05/31 00:28:22;;;;;;;10.00;7.90;;;;;;;12.21;100.00;97465.63;110061;1242;69199;-68
2023/05/31 00:30:51;;;;;;;11.00;7.90;;;;;;;12.20;100.00;97468.52;110099;1243;59735;-67
2023/05/31 00:33:25;;;;;;;9.50;6.80;;;;;;;12.17;100.00;97465.45;109844;1244;59744;-67
2023/05/31 00:35:55;;;;;;;9.60;6.70;;;;;;;12.15;100.00;97465.40;110076;1245;70430;-67
2023/05/31 00:38:27;;;;;;;8.80;6.50;;;;;;;12.15;100.00;97465.11;109793;1246;69275;-67
2023/05/31 00:40:56;;;;;;;8.40;6.60;;;;;;;12.15;100.00;97466.83;110055;1245;69529;-68
2023/05/31 00:43:25;;;;;;;8.60;6.70;;;;;;;12.12;100.00;97468.61;110147;1241;59701;-68
2023/05/31 00:45:56;;;;;;;9.50;7.20;;;;;;;12.11;100.00;97472.42;110130;1244;59685;-69
2023/05/31 00:48:27;;;;;;;11.20;7.10;;;;;;;12.08;100.00;97472.09;110167;1242;71378;-68
2023/05/31 00:50:55;;;;;;;10.40;7.50;;;;;;;12.08;100.00;97472.98;110115;1244;70132;-67
2023/05/31 00:53:24;;;;;;;10.20;6.70;;;;;;;12.09;100.00;97473.93;109959;1245;69903;-67
2023/05/31 00:55:55;;;;;;;10.70;7.60;;;;;;;12.08;100.00;97468.94;110013;1245;59791;-69
2023/05/31 00:58:27;;;;;;;10.00;7.30;;;;;;;12.07;100.00;97468.83;110124;1242;59742;-67
2023/05/31 01:00:58;;;;;;;10.10;6.90;;;;;;;12.09;100.00;97471.28;110094;1244;70808;-68
2023/05/31 01:03:33;;;;;;;8.90;6.80;;;;;;;12.15;100.00;97473.11;110104;1241;68588;-68
2023/05/31 01:06:05;;;;;;;9.40;6.70;;;;;;;12.20;100.00;97470.77;110083;1242;69196;-67
2023/05/31 01:08:36;;;;;;;10.60;8.00;;;;;;;12.25;100.00;97470.73;110094;1245;59729;-67
2023/05/31 01:11:13;;;;;;;10.20;7.50;;;;;;;12.30;100.00;97470.41;109793;1246;59682;-67
2023/05/31 01:14:09;;;;;;;10.30;7.50;;;;;;;12.34;100.00;97470.27;110026;1243;71274;-69
2023/05/31 01:16:52;;;;;;;11.20;8.90;;;;;;;12.35;100.00;97472.60;110179;1241;69296;-68
2023/05/31 01:20:01;;;;;;;9.10;7.50;;;;;;;12.36;100.00;97469.70;110096;1241;69327;-68
2023/05/31 01:22:41;;;;;;;9.50;7.50;;;;;;;12.40;100.00;97472.40;110120;1245;59667;-68
2023/05/31 01:25:32;;;;;;;9.40;7.10;;;;;;;12.43;100.00;97475.08;110162;1244;59671;-67
2023/05/31 01:28:10;;;;;;;10.30;7.40;;;;;;;12.46;100.00;97471.88;109869;1246;70560;-67
2023/05/31 01:30:39;;;;;;;9.60;7.60;;;;;;;12.50;100.00;97470.77;110099;1244;69243;-69
2023/05/31 01:33:10;;;;;;;10.80;7.70;;;;;;;12.52;100.00;97466.86;110117;1241;69227;-67
2023/05/31 01:35:42;;;;;;;10.30;7.80;;;;;;;12.57;100.00;97463.19;110142;1244;59789;-67
2023/05/31 01:38:13;;;;;;;13.90;8.00;;;;;;;12.60;100.00;97463.95;110120;1244;59660;-69
2023/05/31 01:40:42;;;;;;;10.60;7.50;;;;;;;12.62;100.00;97459.58;110139;1241;70551;-67
2023/05/31 01:43:13;;;;;;;8.90;7.40;;;;;;;12.63;100.00;97459.50;109810;1244;69244;-68
2023/05/31 01:45:41;;;;;;;9.50;7.50;;;;;;;12.65;100.00;97457.58;110123;1241;68400;-68
2023/05/31 01:48:11;;;;;;;10.10;7.80;;;;;;;12.65;100.00;97460.27;110165;1243;59712;-68
2023/05/31 01:50:44;;;;;;;9.40;7.60;;;;;;;12.63;100.00;97461.11;109931;1243;59705;-69
2023/05/31 01:53:13;;;;;;;9.80;7.70;;;;;;;12.61;100.00;97458.81;109963;1244;70853;-68
2023/05/31 01:55:47;;;;;;;11.30;7.70;;;;;;;12.59;100.00;97461.11;110198;1243;69310;-68
2023/05/31 01:58:17;;;;;;;;;;;;;;;12.59;100.00;97462.65;110094;1244;69083;-68
2023/05/31 02:00:45;;;;;;;;;;;;;;;12.59;100.00;97461.58;109941;1244;59770;-68
2023/05/31 02:03:16;;;;;;;9.10;6.90;;;;;;;12.59;100.00;97463.19;109867;1243;59659;-69
2023/05/31 02:05:58;;;;;;;8.50;6.90;;;;;;;12.58;100.00;97462.52;110019;1244;71882;-67
2023/05/31 02:08:28;;;;;;;9.10;7.80;;;;;;;12.57;100.00;97465.08;110104;1242;68664;-68
2023/05/31 02:11:02;;;;;;;7.50;6.10;;;;;;;12.57;100.00;97463.71;110145;1244;69311;-68
2023/05/31 02:13:33;;;;;;;8.60;7.20;;;;;;;12.56;100.00;97464.64;109877;1244;59741;-68
2023/05/31 02:16:05;;;;;;;;;;;;;;;12.55;100.00;97467.66;110135;1245;59696;-68
2023/05/31 02:18:38;;;;;;;8.50;5.90;;;;;;;12.55;100.00;97468.93;110112;1244;71450;-68
2023/05/31 02:21:08;;;;;;;9.60;7.60;;;;;;;12.54;100.00;97473.56;110106;1244;68309;-68
2023/05/31 02:23:39;;;;;;;8.30;6.90;;;;;;;12.53;100.00;97475.38;109751;1246;69434;-68
2023/05/31 02:26:11;;;;;;;10.40;7.00;;;;;;;12.52;100.00;97478.45;110042;1244;59706;-68
2023/05/31 02:28:41;;;;;;;10.60;7.50;;;;;;;12.51;100.00;97481.12;110115;1244;59762;-68
2023/05/31 02:31:13;;;;;;;9.30;7.40;;;;;;;12.51;100.00;97482.86;110102;1244;71360;-68
2023/05/31 02:33:48;;;;;;;9.20;7.20;;;;;;;12.51;100.00;97483.19;110080;1242;69381;-68
2023/05/31 02:36:18;;;;;;;8.20;6.80;;;;;;;12.53;100.00;97482.53;110099;1242;69339;-68
2023/05/31 02:38:55;;;;;;;9.50;7.40;;;;;;;12.54;100.00;97481.38;110081;1244;59709;-67
2023/05/31 02:41:25;;;;;;;10.20;7.00;;;;;;;12.55;100.00;97479.77;110145;1244;59709;-68
2023/05/31 02:43:54;;;;;;;;;;;;;;;12.53;100.00;97481.30;110176;1241;70657;-68
2023/05/31 02:46:24;;;;;;;11.70;7.50;;;;;;;12.49;100.00;97483.52;109822;1243;67718;-68
2023/05/31 02:48:53;;;;;;;9.80;7.90;;;;;;;12.45;100.00;97485.80;109813;1245;68857;-68
2023/05/31 02:51:23;;;;;;;11.20;8.30;;;;;;;12.37;100.00;97487.27;110042;1244;59758;-68
2023/05/31 02:54:10;;;;;;;10.00;8.50;;;;;;;12.32;100.00;97485.05;110040;1244;59670;-68
2023/05/31 02:56:39;;;;;;;11.40;8.40;;;;;;;12.30;100.00;97492.90;109739;1243;70471;-68
2023/05/31 02:59:21;;;;;;;10.30;6.90;;;;;;;12.31;100.00;97491.59;110082;1244;69735;-68
2023/05/31 03:02:09;;;;;;;7.40;6.00;;;;;;;12.36;100.00;97496.27;110089;1245;69678;-68
2023/05/31 03:04:44;;;;;;;6.60;5.50;;;;;;;12.42;100.00;97499.86;110077;1244;59677;-67
2023/05/31 03:07:17;;;;;;;8.90;7.00;;;;;;;12.47;100.00;97502.20;109759;1244;59720;-67
2023/05/31 03:09:45;;;;;;;8.30;6.20;;;;;;;12.53;100.00;97503.01;109721;1241;72110;-67
2023/05/31 03:12:17;;;;;;;8.80;6.30;;;;;;;12.59;100.00;97503.88;110103;1242;68357;-69
2023/05/31 03:14:48;;;;;;;9.40;7.50;;;;;;;12.68;100.00;97504.35;109774;1244;68639;-69
2023/05/31 03:17:17;;;;;;;10.20;8.10;;;;;;;12.74;100.00;97510.55;110057;1241;59808;-67
2023/05/31 03:19:47;;;;;;;9.70;8.10;;;;;;;12.76;100.00;97506.73;109889;1244;59695;-69
2023/05/31 03:22:16;;;;;;;9.50;7.00;;;;;;;12.74;100.00;97506.23;109783;1248;70453;-69
2023/05/31 03:24:46;;;;;;;11.30;7.80;;;;;;;12.72;100.00;97505.30;110127;1244;69315;-68
2023/05/31 03:27:17;;;;;;;9.20;7.10;;;;;;;12.70;100.00;97504.95;110107;1241;69345;-68
2023/05/31 03:29:46;;;;;;;8.00;6.00;;;;;;;12.74;100.00;97503.20;109808;1246;59739;-68
2023/05/31 03:32:14;;;;;;;8.90;7.10;;;;;;;12.81;100.00;97503.77;110156;1243;59681;-68
2023/05/31 03:34:43;;;;;;;11.40;8.60;;;;;;;12.86;100.00;97503.14;109986;1242;71405;-68
2023/05/31 03:37:12;;;;;;;10.60;9.00;;;;;;;12.91;100.00;97504.69;109741;1247;69897;-69
2023/05/31 03:39:44;;;;;;;10.30;9.20;;;;;;;12.96;100.00;97503.84;110100;1244;69865;-67
2023/05/31 03:42:23;;;;;;;11.10;8.40;;;;;;;13.02;100.00;97504.30;110028;1244;59696;-69
2023/05/31 03:44:52;;;;;;;10.20;8.00;;;;;;;13.10;100.00;97511.02;109767;1245;59743;-68
2023/05/31 03:47:21;;;;;;;7.80;6.60;;;;;;;13.18;100.00;97511.55;109738;1248;72024;-68
2023/05/31 03:49:51;;;;;;;9.20;6.80;;;;;;;13.27;100.00;97511.55;110098;1241;69233;-69
2023/05/31 03:52:20;;;;;;;9.00;6.00;;;;;;;13.37;100.00;97511.41;110129;1245;69297;-69
2023/05/31 03:54:49;;;;;;;7.50;6.00;;;;;;;13.47;100.00;97507.80;110083;1241;59679;-69
2023/05/31 03:57:18;;;;;;;7.60;5.70;;;;;;;13.58;100.00;97506.95;110131;1245;59695;-68
2023/05/31 03:59:47;;;;;;;8.50;6.10;;;;;;;13.66;100.00;97513.17;110159;1242;71637;-68
2023/05/31 04:02:15;;;;;;;8.50;6.70;;;;;;;13.75;100.00;97515.77;109831;1247;70314;-67
2023/05/31 04:04:45;;;;;;;7.20;5.90;;;;;;;13.85;100.00;97518.52;110099;1244;69133;-68
2023/05/31 04:07:13;;;;;;;8.70;5.60;;;;;;;13.93;100.00;97521.25;110061;1244;60118;-68
2023/05/31 04:09:42;;;;;;;6.50;4.70;;;;;;;14.04;100.00;97521.24;109938;1242;59734;-68
2023/05/31 04:12:11;;;;;;;8.40;6.00;;;;;;;14.15;100.00;97523.99;110108;1244;71330;-69
2023/05/31 04:14:41;;;;;;;8.10;6.20;;;;;;;14.23;100.00;97523.39;109847;1244;69235;-69
2023/05/31 04:17:10;;;;;;;8.30;6.50;;;;;;;14.32;100.00;97519.52;110070;1245;68286;-69
2023/05/31 04:19:38;;;;;;;7.90;6.20;;;;;;;14.42;100.00;97524.44;110090;1244;59692;-69
2023/05/31 04:22:07;;;;;;;8.60;6.10;;;;;;;14.54;100.00;97524.15;110110;1244;59673;-69
2023/05/31 04:24:35;;;;;;;7.70;6.50;;;;;;;14.67;100.00;97525.30;109901;1244;70996;-70
2023/05/31 04:27:06;;;;;;;9.60;7.00;;;;;;;14.78;100.00;97524.34;110102;1244;69836;-68
2023/05/31 04:29:37;;;;;;;8.40;6.80;;;;;;;14.82;100.00;97525.40;109806;1246;69652;-68
2023/05/31 04:32:07;;;;;;;9.50;7.00;;;;;;;14.90;100.00;97529.77;109917;1244;59757;-68
2023/05/31 04:34:37;;;;;;;7.20;6.20;;;;;;;15.02;100.00;97530.47;109855;1247;59611;-69
2023/05/31 04:37:07;;;;;;;9.80;6.80;;;;;;;15.16;100.00;97528.64;110160;1245;71963;-68
2023/05/31 04:39:36;;;;;;;8.40;6.20;;;;;;;15.32;100.00;97525.96;109784;1246;69283;-70
2023/05/31 04:42:05;;;;;;;12.30;6.10;;;;;;;15.50;100.00;97528.20;110031;1241;69368;-69
2023/05/31 04:44:34;;;;;;;9.60;6.60;;;;;;;15.66;100.00;97523.23;109866;1248;60054;-68
2023/05/31 04:47:04;;;;;;;9.70;6.60;;;;;;;15.78;100.00;97523.58;110201;1241;59752;-68
2023/05/31 04:49:33;;;;;;;8.40;7.10;;;;;;;15.90;100.00;97527.41;109902;1246;72370;-68
2023/05/31 04:52:22;;;;;;;7.10;5.70;;;;;;;16.08;100.00;97530.94;110185;1244;69694;-71
2023/05/31 04:54:51;;;;;;;6.90;6.00;;;;;;;16.26;100.00;97528.07;110078;1244;69893;-68
2023/05/31 04:57:20;;;;;;;8.30;6.00;;;;;;;16.47;100.00;97529.76;110101;1244;59692;-69
2023/05/31 04:59:50;;;;;;;8.10;5.90;;;;;;;16.67;99.38;97526.66;109877;1245;59705;-70
2023/05/31 05:02:21;;;;;;;7.20;5.30;;;;;;;16.89;96.26;97532.86;109822;1243;71414;-69
2023/05/31 05:04:53;;;;;;;6.80;5.60;;;;;;;17.27;100.00;97532.66;109842;1246;69837;-69
2023/05/31 05:07:22;;;;;;;6.90;5.80;;;;;;;17.69;100.00;97530.20;109792;1244;69385;-68
2023/05/31 05:09:50;;;;;;;8.60;6.10;;;;;;;18.13;95.84;97532.88;109795;1246;60041;-69
2023/05/31 05:12:18;;;;;;;8.70;6.10;;;;;;;18.52;93.08;97533.80;110119;1245;59695;-68
2023/05/31 05:14:46;;;;;;;7.10;6.10;;;;;;;18.88;86.24;97537.64;110046;1242;71944;-68
2023/05/31 05:17:15;;;;;;;7.30;5.40;;;;;;;19.18;86.77;97544.25;109883;1248;68426;-67
2023/05/31 05:19:43;;;;;;;6.50;5.50;;;;;;;19.44;88.24;97540.84;109798;1246;69260;-69
2023/05/31 05:22:12;;;;;;;6.50;4.70;;;;;;;19.56;85.41;97540.38;109806;1246;59699;-68
2023/05/31 05:24:41;;;;;;;5.70;4.80;;;;;;;19.53;80.81;97542.27;109809;1246;59688;-68
2023/05/31 05:27:09;;;;;;;6.90;5.40;;;;;;;19.48;78.31;97542.08;110147;1241;71474;-68
2023/05/31 05:29:38;;;;;;;5.90;5.20;;;;;;;19.42;78.52;97541.05;110104;1244;69222;-69
2023/05/31 05:32:07;;;;;;;6.70;4.60;;;;;;;19.50;81.02;97544.66;110024;1241;69462;-68
2023/05/31 05:34:36;;;;;;;7.90;5.00;;;;;;;19.49;77.18;97548.77;110065;1244;59767;-68
2023/05/31 05:37:05;;;;;;;5.70;4.50;;;;;;;19.42;74.99;97553.06;110115;1245;60108;-68
2023/05/31 05:39:33;;;;;;;7.20;5.40;;;;;;;19.39;71.76;97556.41;109763;1244;72239;-67
2023/05/31 05:42:03;;;;;;;9.10;5.20;;;;;;;19.37;74.37;97556.36;110086;1244;69239;-68
2023/05/31 05:44:31;;;;;;;7.10;5.20;;;;;;;19.33;73.83;97555.38;110106;1244;69944;-68
2023/05/31 05:47:00;;;;;;;8.00;5.10;;;;;;;19.28;75.89;97559.56;110097;1243;59708;-69
2023/05/31 05:49:28;;;;;;;7.80;5.60;;;;;;;19.21;75.74;97560.91;110085;1245;59760;-69
2023/05/31 05:51:57;;;;;;;6.50;5.40;;;;;;;19.24;76.01;97560.79;110106;1245;70626;-69
2023/05/31 05:54:27;;;;;;;7.40;5.60;;;;;;;19.18;75.13;97563.83;109772;1248;69240;-68
2023/05/31 05:56:55;;;;;;;7.40;4.80;;;;;;;19.17;73.51;97564.48;110108;1245;69582;-68
2023/05/31 05:59:24;;;;;;;6.00;5.00;;;;;;;19.23;72.60;97568.64;110108;1243;59675;-70
2023/05/31 06:01:59;;;;;;;7.10;5.30;;;;;;;19.31;72.04;97564.38;110111;1242;59678;-68
2023/05/31 06:04:27;;;;;;;6.20;4.80;;;;;;;19.38;72.62;97570.71;109757;1246;71919;-69
2023/05/31 06:06:56;;;;;;;10.90;5.40;;;;;;;19.60;73.81;97569.11;110106;1244;68778;-69
2023/05/31 06:09:24;;;;;;;7.00;4.70;;;;;;;19.65;70.37;97567.89;109780;1242;69907;-69
2023/05/31 06:11:52;;;;;;;6.50;4.70;;;;;;;19.81;72.49;97570.50;109854;1244;59809;-68
2023/05/31 06:14:21;;;;;;;6.40;4.70;;;;;;;19.97;75.34;97574.91;110069;1245;59721;-70
2023/05/31 06:16:51;;;;;;;5.90;4.60;;;;;;;20.19;75.60;97577.23;110142;1245;71985;-70
2023/05/31 06:19:19;;;;;;;6.80;4.40;;;;;;;20.47;75.14;97579.82;110106;1244;69746;-69
2023/05/31 06:21:48;;;;;;;4.50;3.50;;;;;;;20.96;74.08;97581.76;110096;1243;68932;-69
2023/05/31 06:24:16;;;;;;;6.20;4.60;;;;;;;21.51;69.85;97581.27;109718;1247;59767;-68
2023/05/31 06:26:43;;;;;;;6.10;4.50;;;;;;;21.78;64.63;97577.91;110126;1245;59686;-68
2023/05/31 06:29:13;;;;;;;6.30;4.10;;;;;;;22.11;62.56;97577.95;109805;1248;70967;-68
2023/05/31 06:32:11;;;;;;;6.60;4.10;;;;;;;22.72;64.87;97583.23;109940;1244;69203;-68
2023/05/31 06:34:42;;;;;;;5.40;4.30;;;;;;;23.16;59.23;97583.54;109785;1243;69860;-68
2023/05/31 06:37:12;;;;;;;4.50;4.00;;;;;;;23.55;57.03;97580.52;109844;1245;59689;-69
2023/05/31 06:39:40;;;;;;;7.00;4.70;;;;;;;23.92;54.56;97579.46;110153;1244;59700;-69
2023/05/31 06:42:09;;;;;;;5.00;4.30;;;;;;;24.30;55.64;97578.27;110117;1245;71996;-69
2023/05/31 06:44:46;;;;;;;5.50;4.50;;;;;;;24.85;55.46;97579.70;110143;1245;70312;-68
2023/05/31 06:47:33;;;;;;;5.90;4.50;;;;;;;25.08;50.50;97582.09;109856;1248;69551;-68
2023/05/31 06:50:24;;;;;;;6.00;4.50;;;;;;;25.26;49.06;97587.16;109838;1250;59741;-69
2023/05/31 06:52:52;;;;;;;6.20;4.70;;;;;;;25.04;48.62;97585.89;110138;1245;59625;-69
2023/05/31 06:55:27;;;;;;;5.50;4.30;;;;;;;24.73;48.49;97586.38;110108;1244;71989;-71
2023/05/31 06:57:55;;;;;;;5.50;4.40;;;;;;;24.59;48.26;97588.15;110131;1244;69833;-69
2023/05/31 07:00:23;;;;;;;5.40;4.10;;;;;;;24.53;48.51;97585.52;110116;1244;68803;-71
2023/05/31 07:02:51;;;;;;;5.80;4.10;;;;;;;24.47;47.14;97588.32;110162;1245;59666;-70
2023/05/31 07:05:20;;;;;;;4.70;4.10;;;;;;;24.50;48.76;97586.50;109975;1246;59740;-69
2023/05/31 07:07:49;;;;;;;;;;;;;;;24.33;48.24;97589.55;109860;1248;71427;-71
2023/05/31 07:10:17;;;;;;;5.00;3.60;;;;;;;24.47;48.42;97585.73;109969;1245;69392;-72
2023/05/31 07:12:45;;;;;;;6.30;4.00;;;;;;;24.50;48.86;97583.15;110118;1245;69922;-70
2023/05/31 07:15:14;;;;;;;5.30;3.80;;;;;;;24.81;49.97;97586.79;109774;1241;59750;-68
2023/05/31 07:17:42;;;;;;;6.00;4.10;;;;;;;25.01;47.79;97585.27;110112;1244;59685;-70
2023/05/31 07:20:14;;;;;;;5.30;4.10;;;;;;;24.97;45.40;97586.50;109764;1244;72501;-69
2023/05/31 07:22:42;;;;;;;4.50;3.80;;;;;;;25.16;44.57;97586.02;110127;1246;69776;-70
2023/05/31 07:25:11;;;;;;;5.30;4.00;;;;;;;25.59;45.94;97586.89;110093;1243;68450;-70
2023/05/31 07:27:39;;;;;;;5.40;3.60;;;;;;;25.88;45.03;97584.86;110100;1244;59743;-69
2023/05/31 07:30:08;;;;;;;4.40;3.30;;;;;;;25.97;41.31;97581.45;110163;1246;59715;-69
2023/05/31 07:32:36;;;;;;;4.30;3.80;;;;;;;26.00;41.35;97583.10;110146;1243;71397;-69
2023/05/31 07:35:06;;;;;;;5.30;3.20;;;;;;;26.28;41.69;97582.48;110086;1245;69756;-69
2023/05/31 07:37:34;;;;;;;4.10;3.40;;;;;;;26.30;40.43;97574.60;110129;1243;69151;-69
2023/05/31 07:40:04;;;;;;;5.80;4.00;;;;;;;26.95;41.04;97581.77;110137;1244;59665;-69
2023/05/31 07:42:33;;;;;;;5.90;3.60;;;;;;;27.44;39.76;97579.02;110119;1244;59766;-70
2023/05/31 07:45:00;;;;;;;5.30;3.60;;;;;;;27.56;39.50;97577.63;110106;1244;72004;-69
2023/05/31 07:47:29;;;;;;;4.90;3.60;;;;;;;27.26;40.71;97576.84;110110;1243;68394;-69
2023/05/31 07:49:57;;;;;;;4.90;3.30;;;;;;;27.51;41.25;97576.59;110066;1245;69613;-70
2023/05/31 07:52:25;;;;;;;6.30;3.40;;;;;;;27.57;40.02;97577.23;110072;1244;59733;-71
2023/05/31 07:54:52;;;;;;;5.80;3.70;;;;;;;27.31;38.50;97572.76;110128;1244;59673;-71
2023/05/31 07:57:21;;;;;;;6.50;3.50;;;;;;;26.94;39.15;97573.19;110100;1244;72130;-70
2023/05/31 07:59:53;;;;;;;5.20;3.80;;;;;;;26.75;39.18;97573.19;110117;1245;69697;-70
2023/05/31 08:02:21;;;;;;;5.00;3.70;;;;;;;26.69;39.32;97571.15;110137;1243;69658;-68
2023/05/31 08:04:51;;;;;;;4.70;3.50;;;;;;;26.93;39.75;97573.60;110089;1244;59694;-69
2023/05/31 08:07:18;;;;;;;6.90;4.00;;;;;;;27.23;39.27;97573.89;110115;1244;59631;-69
2023/05/31 08:09:47;;;;;;;5.50;3.60;;;;;;;27.26;37.98;97572.14;110143;1245;71698;-70
2023/05/31 08:12:15;;;;;;;3.70;3.30;;;;;;;27.51;37.98;97574.08;110147;1245;69223;-68
2023/05/31 08:14:43;;;;;;;6.20;3.90;;;;;;;27.61;37.80;97575.62;110248;1245;69395;-70
2023/05/31 08:17:12;;;;;;;4.90;3.00;;;;;;;27.77;37.28;97573.46;110224;1245;59688;-69
2023/05/31 08:19:40;;;;;;;4.30;3.60;;;;;;;27.96;36.56;97572.14;110085;1243;59707;-71
2023/05/31 08:22:08;;;;;;;5.50;3.30;;;;;;;28.47;37.60;97567.69;110114;1244;71791;-69
2023/05/31 08:24:36;;;;;;;6.40;3.70;;;;;;;29.13;36.37;97569.59;110108;1245;68808;-70
2023/05/31 08:27:05;;;;;;;4.50;3.50;;;;;;;29.20;35.22;97568.94;110114;1244;69894;-70
2023/05/31 08:29:34;;;;;;;4.60;3.40;;;;;;;29.07;35.39;97569.14;110103;1244;59687;-68
2023/05/31 08:32:02;;;;;;;6.10;3.30;;;;;;;29.21;35.88;97568.73;110055;1244;59678;-69
2023/05/31 08:34:30;;;;;;;5.50;3.50;;;;;;;29.28;34.88;97568.63;109757;1246;70816;-70
2023/05/31 08:36:59;;;;;;;4.50;3.20;;;;;;;29.23;36.13;97568.19;110224;1242;67838;-70
2023/05/31 08:39:27;;;;;;;5.30;3.90;;;;;;;29.25;33.19;97566.44;110080;1244;69849;-69
2023/05/31 08:42:04;;;;;;;6.70;3.60;;;;;;;29.06;34.70;97565.58;110071;1245;59710;-69
2023/05/31 08:44:32;;;;;;;4.30;3.30;;;;;;;29.17;33.77;97565.24;110088;1245;59612;-69
2023/05/31 08:47:22;;;;;;;4.20;3.70;;;;;;;29.38;33.97;97565.59;110122;1244;72289;-70
2023/05/31 08:49:54;;;;;;;5.00;3.30;;;;;;;29.50;33.21;97566.64;110096;1245;70126;-70
2023/05/31 08:52:22;;;;;;;4.50;3.10;;;;;;;29.02;34.40;97563.29;110106;1245;69983;-70
2023/05/31 08:54:51;;;;;;;4.80;3.50;;;;;;;28.85;33.67;97556.99;110139;1244;59703;-70
2023/05/31 08:57:20;;;;;;;4.70;3.50;;;;;;;29.11;33.40;97556.63;110118;1243;59694;-69
2023/05/31 08:59:49;;;;;;;4.30;3.40;;;;;;;28.66;32.77;97552.85;110112;1245;71524;-69
2023/05/31 09:02:18;;;;;;;4.40;3.30;;;;;;;27.79;34.65;97555.15;110115;1244;69167;-70
2023/05/31 09:04:45;;;;;;;4.70;3.30;;;;;;;28.44;33.92;97550.10;110113;1245;69790;-69
2023/05/31 09:07:13;;;;;;;4.50;2.60;;;;;;;28.68;33.52;97550.77;110083;1244;59685;-70
2023/05/31 09:09:42;;;;;;;4.40;3.20;;;;;;;28.63;33.02;97546.11;110137;1245;59697;-70
2023/05/31 09:12:10;;;;;;;4.90;3.70;;;;;;;28.61;33.16;97546.75;110130;1243;71571;-67
2023/05/31 09:14:38;;;;;;;5.60;3.70;;;;;;;28.26;32.82;97546.40;110117;1244;69557;-69
2023/05/31 09:17:07;;;;;;;3.90;3.10;;;;;;;28.42;33.02;97544.95;110133;1245;70046;-69
2023/05/31 09:19:41;;;;;;;5.50;3.50;;;;;;;28.47;32.36;97544.70;110127;1244;59782;-68
2023/05/31 09:22:09;;;;;;;6.10;3.50;;;;;;;28.50;31.66;97537.77;110109;1242;59684;-69
2023/05/31 09:24:38;;;;;;;5.20;3.70;;;;;;;27.72;32.81;97541.03;110085;1243;71994;-69
2023/05/31 09:27:06;;;;;;;4.90;3.20;;;;;;;27.41;32.92;97540.78;110111;1245;69288;-69
2023/05/31 09:29:37;;;;;;;4.40;3.10;;;;;;;27.99;34.23;97539.23;110130;1245;69296;-69
2023/05/31 09:32:09;;;;;;;4.70;3.20;;;;;;;28.28;33.00;97536.47;110122;1244;59907;-71
2023/05/31 09:34:38;;;;;;;5.10;3.90;;;;;;;28.55;33.06;97534.72;110170;1244;59745;-71
2023/05/31 09:37:05;;;;;;;5.80;3.30;;;;;;;28.00;32.42;97536.11;110146;1244;71211;-70
2023/05/31 09:39:34;;;;;;;4.80;2.80;;;;;;;28.18;32.38;97531.72;110149;1244;69277;-70
2023/05/31 09:42:13;;;;;;;5.00;3.50;;;;;;;28.24;32.74;97524.88;110129;1245;70054;-70
2023/05/31 09:44:48;;;;;;;4.80;3.40;;;;;;;28.66;31.54;97527.92;110068;1244;59709;-70
2023/05/31 09:47:16;;;;;;;5.30;3.70;;;;;;;28.06;30.81;97525.23;110198;1245;59678;-69
2023/05/31 09:49:44;;;;;;;4.90;3.00;;;;;;;28.18;31.27;97523.52;110175;1241;71415;-69
2023/05/31 09:52:13;;;;;;;5.90;3.70;;;;;;;28.29;32.40;97521.11;110160;1244;69780;-69
2023/05/31 09:54:41;;;;;;;5.50;3.00;;;;;;;28.23;30.91;97518.52;110081;1243;69302;-70
2023/05/31 09:57:29;;;;;;;4.90;2.80;;;;;;;28.26;30.87;97516.80;109800;1248;59808;-71
2023/05/31 09:59:59;;;;;;;4.10;3.10;;;;;;;29.15;29.56;97512.27;110210;1244;59723;-71
2023/05/31 10:02:28;;;;;;;3.70;2.70;;;;;;;28.76;29.39;97513.35;110131;1244;71281;-68
2023/05/31 10:04:56;;;;;;;5.20;3.40;;;;;;;29.08;29.72;97512.56;110079;1245;69264;-68
2023/05/31 10:07:26;;;;;;;;;;;;;;;29.13;29.74;97513.07;110122;1245;69638;-68
2023/05/31 10:09:54;;;;;;;4.30;3.20;;;;;;;29.67;29.00;97510.00;110153;1244;59666;-70
2023/05/31 10:12:26;;;;;;;4.80;3.20;;;;;;;29.73;28.79;97508.67;110232;1244;59688;-69
2023/05/31 10:15:01;;;;;;;5.10;3.20;;;;;;;29.77;28.60;97506.73;110180;1244;71907;-69
2023/05/31 10:17:34;;;;;;;4.90;3.30;;;;;;;30.29;28.68;97505.15;110126;1244;67743;-70
2023/05/31 10:20:07;;;;;;;5.20;2.70;;;;;;;30.34;27.99;97508.09;110230;1244;69710;-70
2023/05/31 10:22:42;;;;;;;6.80;3.70;;;;;;;29.98;27.19;97505.70;110108;1244;59698;-70
2023/05/31 10:25:17;;;;;;;4.60;3.10;;;;;;;29.40;27.58;97500.11;110220;1243;59744;-70
2023/05/31 10:27:48;;;;;;;4.90;2.90;;;;;;;29.23;28.77;97502.14;110180;1243;71950;-69
2023/05/31 10:30:25;;;;;;;5.00;3.40;;;;;;;29.54;28.06;97502.54;110107;1245;70260;-69
2023/05/31 10:32:59;;;;;;;4.30;3.40;;;;;;;29.44;27.61;97497.91;110191;1241;68325;-70
2023/05/31 10:35:27;;;;;;;4.30;3.20;;;;;;;29.55;28.91;97495.47;110160;1241;59679;-69
2023/05/31 10:37:56;;;;;;;;;;;;;;;29.70;28.10;97491.05;110222;1243;59665;-69
2023/05/31 10:40:43;;;;;;;5.10;3.20;;;;;;;29.91;28.53;97491.89;110115;1244;71558;-68
2023/05/31 10:43:25;;;;;;;3.90;3.30;;;;;;;30.06;28.47;97481.95;110128;1243;68497;-69
2023/05/31 10:46:01;;;;;;;5.10;3.50;;;;;;;30.12;28.15;97484.26;109736;1245;589823;-69
2023/05/31 10:48:41;;;;;;;4.60;3.40;;;;;;;29.89;28.33;97479.20;110126;1243;59677;-69
2023/05/31 10:51:10;;;;;;;4.80;3.30;;;;;;;29.96;27.91;97475.15;110237;1241;59649;-68
2023/05/31 10:53:39;;;;;;;4.60;3.20;;;;;;;29.76;27.92;97474.08;110177;1241;71248;-69
2023/05/31 10:56:10;;;;;;;4.90;3.70;;;;;;;29.86;27.78;97475.27;110171;1244;68464;-68
2023/05/31 10:58:39;;;;;;;5.10;3.20;;;;;;;29.12;27.68;97477.89;110117;1245;69399;-69
2023/05/31 11:01:09;;;;;;;;;;;;;;;29.46;28.03;97467.97;110154;1250;59743;-69
2023/05/31 11:03:49;;;;;;;3.70;2.70;;;;;;;29.61;28.60;97466.96;110105;1245;59701;-69
2023/05/31 11:06:30;;;;;;;4.90;3.30;;;;;;;29.99;28.08;97464.60;110155;1246;70360;-69
2023/05/31 11:09:00;;;;;;;4.40;3.20;;;;;;;30.10;28.67;97463.03;110208;1245;69205;-68
2023/05/31 11:11:30;;;;;;;4.70;3.30;;;;;;;30.22;29.16;97461.73;110097;1245;68413;-69
2023/05/31 11:13:59;;;;;;;4.40;3.30;;;;;;;30.22;27.65;97463.35;110154;1245;59703;-70
2023/05/31 11:16:28;;;;;;;5.30;3.30;;;;;;;30.23;27.17;97465.32;110173;1245;59678;-69
2023/05/31 11:19:07;;;;;;;6.60;3.40;;;;;;;30.03;27.28;97460.56;110302;1241;70551;-69
2023/05/31 11:21:47;;;;;;;3.70;2.90;;;;;;;30.37;27.27;97463.36;110155;1245;69263;-68
2023/05/31 11:24:44;;;;;;;4.50;3.10;;;;;;;30.33;26.38;97461.52;110076;1241;70324;-68
2023/05/31 11:27:12;;;;;;;6.00;3.70;;;;;;;30.27;26.24;97455.34;109800;1245;59709;-69
2023/05/31 11:29:52;;;;;;;4.00;3.20;;;;;;;30.15;26.89;97451.63;110111;1245;59660;-69
2023/05/31 11:32:34;;;;;;;4.90;3.40;;;;;;;30.04;28.12;97454.85;110219;1244;71355;-69
2023/05/31 11:35:03;;;;;;;4.80;3.30;;;;;;;29.81;31.24;97449.86;110073;1244;68330;-69
2023/05/31 11:37:34;;;;;;;4.20;3.20;;;;;;;29.96;30.31;97449.44;110151;1245;69939;-68
2023/05/31 11:40:14;;;;;;;4.20;3.10;;;;;;;29.85;31.14;97451.00;110169;1245;60053;-69